createdAt,value
2022-10-17T00:00:51.704Z,11.83
2022-10-17T00:03:19.504Z,11.83
2022-10-17T00:05:48.361Z,11.84
2022-10-17T00:08:16.855Z,11.83
2022-10-17T00:10:44.682Z,12.02
2022-10-17T00:13:12.551Z,11.79
2022-10-17T00:15:43.826Z,12.05
2022-10-17T00:18:11.771Z,11.96
2022-10-17T00:20:39.089Z,11.57
2022-10-17T00:23:06.422Z,11.87
2022-10-17T00:25:33.986Z,11.72
2022-10-17T00:28:01.323Z,11.87
2022-10-17T00:30:28.662Z,11.86
2022-10-17T00:32:56.243Z,12.06
2022-10-17T00:35:23.563Z,11.60
2022-10-17T00:37:50.894Z,11.89
2022-10-17T00:40:18.642Z,11.60
2022-10-17T00:42:46.559Z,11.61
2022-10-17T00:45:22.020Z,11.75
2022-10-17T00:47:54.475Z,11.63
2022-10-17T00:50:22.107Z,11.80
2022-10-17T00:52:50.655Z,11.84
2022-10-17T00:55:21.865Z,11.48
2022-10-17T00:57:49.838Z,11.73
2022-10-17T01:00:20.182Z,11.16
2022-10-17T01:02:48.157Z,11.22
2022-10-17T01:05:18.746Z,11.69
2022-10-17T01:07:47.643Z,11.61
2022-10-17T01:10:15.327Z,11.56
2022-10-17T01:12:50.245Z,11.75
2022-10-17T01:15:31.005Z,11.18
2022-10-17T01:18:04.214Z,11.43
2022-10-17T01:20:55.383Z,11.43
2022-10-17T01:23:41.597Z,11.41
2022-10-17T01:26:32.855Z,11.35
2022-10-17T01:29:16.453Z,11.23
2022-10-17T01:31:47.288Z,10.98
2022-10-17T01:34:36.255Z,11.01
2022-10-17T01:37:08.469Z,10.98
2022-10-17T01:39:39.068Z,11.34
2022-10-17T01:42:24.497Z,10.93
2022-10-17T01:45:03.372Z,11.27
2022-10-17T01:47:32.906Z,11.36
2022-10-17T01:50:05.663Z,10.90
2022-10-17T01:52:38.882Z,11.30
2022-10-17T01:55:14.471Z,10.98
2022-10-17T01:57:45.262Z,11.14
2022-10-17T02:00:17.486Z,11.20
2022-10-17T02:02:45.380Z,11.06
2022-10-17T02:05:13.161Z,11.17
2022-10-17T02:07:41.980Z,10.89
2022-10-17T02:10:15.888Z,10.77
2022-10-17T02:12:59.970Z,11.14
2022-10-17T02:15:42.914Z,11.55
2022-10-17T02:18:52.359Z,11.24
2022-10-17T02:21:41.202Z,11.26
2022-10-17T02:24:26.851Z,11.23
2022-10-17T02:26:59.950Z,10.91
2022-10-17T02:29:38.133Z,10.86
2022-10-17T02:32:23.215Z,10.94
2022-10-17T02:34:53.023Z,10.71
2022-10-17T02:37:23.555Z,11.13
2022-10-17T02:39:51.929Z,10.76
2022-10-17T02:42:21.535Z,10.57
2022-10-17T02:44:49.252Z,10.51
2022-10-17T02:47:29.616Z,10.78
2022-10-17T02:49:58.494Z,10.91
2022-10-17T02:52:37.568Z,10.78
2022-10-17T02:55:13.983Z,10.97
2022-10-17T02:57:53.313Z,10.90
2022-10-17T03:00:22.010Z,11.01
2022-10-17T03:02:52.534Z,10.35
2022-10-17T03:05:28.367Z,10.79
2022-10-17T03:07:56.493Z,10.45
2022-10-17T03:10:25.234Z,10.72
2022-10-17T03:12:52.836Z,10.70
2022-10-17T03:15:20.609Z,10.27
2022-10-17T03:17:48.027Z,10.63
2022-10-17T03:20:15.487Z,10.35
2022-10-17T03:22:43.142Z,9.90
2022-10-17T03:25:10.514Z,10.22
2022-10-17T03:27:37.917Z,10.18
2022-10-17T03:30:06.262Z,10.33
2022-10-17T03:32:34.441Z,10.19
2022-10-17T03:35:02.252Z,10.29
2022-10-17T03:37:30.194Z,10.19
2022-10-17T03:39:57.847Z,10.45
2022-10-17T03:42:25.839Z,10.11
2022-10-17T03:44:54.091Z,10.12
2022-10-17T03:47:21.425Z,10.18
2022-10-17T03:49:49.815Z,10.11
2022-10-17T03:52:17.849Z,10.07
2022-10-17T03:54:45.768Z,10.07
2022-10-17T03:57:13.084Z,10.49
2022-10-17T03:59:40.652Z,10.52
2022-10-17T04:02:08.220Z,10.71
2022-10-17T04:04:36.539Z,10.45
2022-10-17T04:07:04.092Z,10.45
2022-10-17T04:09:31.506Z,10.49
2022-10-17T04:11:59.294Z,9.98
2022-10-17T04:14:26.684Z,9.78
2022-10-17T04:16:54.812Z,9.78
2022-10-17T04:19:22.650Z,10.01
2022-10-17T04:21:50.239Z,10.00
2022-10-17T04:24:17.709Z,9.79
2022-10-17T04:26:45.566Z,10.09
2022-10-17T04:29:13.407Z,10.02
2022-10-17T04:31:41.486Z,9.72
2022-10-17T04:34:09.326Z,10.06
2022-10-17T04:36:36.652Z,10.44
2022-10-17T04:39:05.225Z,9.89
2022-10-17T04:41:33.351Z,10.41
2022-10-17T04:44:02.263Z,10.45
2022-10-17T04:46:31.074Z,9.76
2022-10-17T04:48:58.687Z,10.03
2022-10-17T04:51:26.676Z,10.17
2022-10-17T04:53:55.771Z,9.97
2022-10-17T04:56:24.525Z,9.74
2022-10-17T04:58:52.600Z,10.02
2022-10-17T05:01:22.462Z,10.15
2022-10-17T05:03:51.061Z,10.19
2022-10-17T05:06:24.183Z,10.10
2022-10-17T05:08:53.923Z,9.40
2022-10-17T05:11:24.699Z,9.94
2022-10-17T05:14:00.538Z,9.77
2022-10-17T05:16:28.718Z,10.18
2022-10-17T05:18:58.135Z,10.08
2022-10-17T05:21:29.485Z,10.42
2022-10-17T05:23:57.955Z,9.51
2022-10-17T05:26:25.862Z,9.64
2022-10-17T05:28:54.693Z,9.71
2022-10-17T05:31:22.750Z,9.85
2022-10-17T05:33:50.065Z,10.01
2022-10-17T05:36:18.557Z,9.69
2022-10-17T05:38:51.141Z,10.19
2022-10-17T05:41:19.135Z,10.37
2022-10-17T05:43:46.769Z,9.82
2022-10-17T05:46:16.153Z,9.81
2022-10-17T05:48:43.492Z,10.23
2022-10-17T05:51:12.258Z,10.06
2022-10-17T05:53:41.119Z,9.71
2022-10-17T05:56:11.450Z,9.37
2022-10-17T05:58:53.227Z,9.97
2022-10-17T06:01:22.060Z,9.85
2022-10-17T06:03:49.643Z,10.18
2022-10-17T06:06:17.647Z,10.44
2022-10-17T06:08:45.823Z,10.40
2022-10-17T06:11:13.885Z,10.45
2022-10-17T06:13:41.458Z,10.53
2022-10-17T06:16:09.395Z,10.72
2022-10-17T06:18:37.103Z,10.82
2022-10-17T06:21:07.129Z,11.55
2022-10-17T06:23:35.003Z,10.99
2022-10-17T06:26:05.009Z,11.87
2022-10-17T06:28:33.395Z,12.86
2022-10-17T06:31:07.666Z,13.43
2022-10-17T06:33:36.165Z,13.80
2022-10-17T06:36:05.461Z,14.38
2022-10-17T06:38:34.436Z,15.20
2022-10-17T06:41:08.762Z,15.34
2022-10-17T06:43:37.458Z,15.45
2022-10-17T06:46:06.679Z,16.11
2022-10-17T06:48:34.269Z,16.12
2022-10-17T06:51:04.696Z,16.25
2022-10-17T06:53:34.321Z,16.08
2022-10-17T06:56:04.767Z,15.93
2022-10-17T06:58:41.248Z,15.46
2022-10-17T07:01:11.162Z,15.71
2022-10-17T07:03:40.149Z,15.65
2022-10-17T07:06:07.931Z,15.51
2022-10-17T07:08:35.299Z,15.85
2022-10-17T07:11:13.546Z,15.93
2022-10-17T07:13:40.899Z,15.92
2022-10-17T07:16:08.892Z,15.83
2022-10-17T07:18:36.747Z,15.88
2022-10-17T07:21:05.006Z,16.14
2022-10-17T07:23:34.352Z,16.13
2022-10-17T07:26:03.656Z,16.47
2022-10-17T07:28:31.056Z,16.52
2022-10-17T07:31:15.035Z,16.95
2022-10-17T07:33:43.467Z,16.91
2022-10-17T07:36:11.962Z,16.89
2022-10-17T07:38:39.653Z,16.84
2022-10-17T07:41:08.446Z,17.22
2022-10-17T07:43:36.900Z,17.37
2022-10-17T07:46:05.979Z,17.40
2022-10-17T07:48:33.832Z,17.53
2022-10-17T07:51:06.275Z,17.29
2022-10-17T07:53:37.975Z,16.97
2022-10-17T07:56:07.393Z,17.20
2022-10-17T07:58:35.487Z,17.83
2022-10-17T08:01:04.264Z,17.72
2022-10-17T08:03:32.039Z,17.83
2022-10-17T08:06:00.726Z,17.83
2022-10-17T08:08:28.336Z,17.63
2022-10-17T08:10:58.605Z,18.34
2022-10-17T08:13:25.957Z,18.21
2022-10-17T08:15:53.270Z,18.27
2022-10-17T08:18:20.921Z,17.70
2022-10-17T08:20:48.709Z,18.37
2022-10-17T08:23:16.152Z,18.65
2022-10-17T08:25:43.901Z,18.61
2022-10-17T08:28:11.233Z,18.50
2022-10-17T08:30:38.530Z,18.87
2022-10-17T08:33:06.278Z,18.81
2022-10-17T08:35:33.623Z,18.63
2022-10-17T08:38:01.772Z,18.69
2022-10-17T08:40:33.695Z,18.31
2022-10-17T08:43:13.311Z,18.47
2022-10-17T08:45:46.457Z,18.91
2022-10-17T08:48:17.541Z,19.43
2022-10-17T08:50:54.371Z,18.83
2022-10-17T08:53:31.408Z,19.35
2022-10-17T08:56:07.180Z,19.43
2022-10-17T08:58:37.085Z,19.57
2022-10-17T09:01:29.756Z,19.94
2022-10-17T09:04:15.648Z,19.95
2022-10-17T09:06:54.292Z,19.67
2022-10-17T09:09:29.384Z,19.82
2022-10-17T09:12:05.223Z,19.85
2022-10-17T09:15:08.531Z,19.51
2022-10-17T09:17:52.640Z,19.57
2022-10-17T09:20:23.561Z,19.49
2022-10-17T09:22:59.025Z,20.06
2022-10-17T09:25:27.141Z,20.25
2022-10-17T09:28:10.406Z,20.31
2022-10-17T09:30:47.276Z,19.45
2022-10-17T09:33:34.758Z,20.47
2022-10-17T09:36:06.408Z,20.85
2022-10-17T09:38:39.412Z,20.86
2022-10-17T09:41:46.636Z,20.41
2022-10-17T09:44:28.181Z,20.25
2022-10-17T09:47:28.311Z,20.55
2022-10-17T09:49:57.093Z,20.28
2022-10-17T09:52:48.585Z,20.68
2022-10-17T09:55:16.047Z,19.89
2022-10-17T09:58:01.416Z,20.13
2022-10-17T10:00:32.047Z,20.58
2022-10-17T10:03:26.089Z,20.86
2022-10-17T10:06:04.245Z,21.17
2022-10-17T10:08:34.989Z,21.12
2022-10-17T10:11:05.648Z,21.48
2022-10-17T10:13:34.739Z,21.31
2022-10-17T10:16:18.944Z,21.80
2022-10-17T10:18:50.026Z,21.66
2022-10-17T10:21:20.857Z,21.74
2022-10-17T10:24:10.097Z,21.66
2022-10-17T10:26:44.406Z,21.62
2022-10-17T10:29:23.267Z,21.79
2022-10-17T10:31:51.438Z,21.95
2022-10-17T10:34:26.193Z,21.18
2022-10-17T10:36:58.068Z,22.19
2022-10-17T10:39:45.263Z,21.77
2022-10-17T10:42:24.796Z,21.56
2022-10-17T10:47:24.344Z,21.80
2022-10-17T10:50:07.216Z,21.18
2022-10-17T10:52:46.428Z,21.48
2022-10-17T10:55:35.805Z,21.96
2022-10-17T10:58:42.047Z,21.90
2022-10-17T11:01:24.420Z,21.80
2022-10-17T11:04:08.299Z,21.56
2022-10-17T11:06:37.940Z,21.76
2022-10-17T11:09:46.263Z,22.21
2022-10-17T11:12:28.307Z,22.20
2022-10-17T11:15:17.959Z,22.57
2022-10-17T11:17:52.713Z,23.40
2022-10-17T11:20:31.817Z,22.75
2022-10-17T11:23:12.396Z,23.19
2022-10-17T11:25:41.042Z,22.96
2022-10-17T11:28:14.482Z,23.21
2022-10-17T11:30:53.918Z,22.72
2022-10-17T11:33:28.965Z,23.65
2022-10-17T11:36:02.152Z,23.89
2022-10-17T11:38:45.694Z,24.07
2022-10-17T11:41:30.036Z,24.54
2022-10-17T11:43:58.669Z,24.62
2022-10-17T11:46:27.927Z,24.86
2022-10-17T11:49:19.190Z,24.17
2022-10-17T11:52:04.412Z,23.91
2022-10-17T11:54:44.777Z,24.49
2022-10-17T11:57:15.066Z,25.02
2022-10-17T11:59:54.644Z,24.43
2022-10-17T12:02:54.605Z,23.32
2022-10-17T12:05:31.712Z,23.89
2022-10-17T12:08:18.741Z,23.90
2022-10-17T12:10:55.944Z,23.86
2022-10-17T12:13:29.126Z,23.83
2022-10-17T12:15:57.805Z,23.98
2022-10-17T12:18:27.420Z,23.90
2022-10-17T12:20:59.364Z,23.35
2022-10-17T12:23:28.923Z,24.17
2022-10-17T12:26:04.793Z,23.52
2022-10-17T12:28:40.569Z,24.13
2022-10-17T12:31:13.023Z,24.01
2022-10-17T12:33:46.534Z,24.91
2022-10-17T12:36:22.531Z,24.23
2022-10-17T12:39:03.301Z,23.90
2022-10-17T12:41:39.444Z,23.02
2022-10-17T12:44:12.961Z,23.54
2022-10-17T12:47:10.632Z,23.05
2022-10-17T12:49:48.300Z,22.54
2022-10-17T12:52:35.178Z,23.04
2022-10-17T12:55:12.149Z,22.54
2022-10-17T12:58:00.044Z,22.82
2022-10-17T13:03:46.412Z,23.10
2022-10-17T13:06:40.041Z,22.53
2022-10-17T13:09:26.110Z,23.18
2022-10-17T13:11:54.541Z,23.33
2022-10-17T13:14:22.660Z,22.57
2022-10-17T13:16:59.992Z,22.79
2022-10-17T13:19:42.324Z,23.06
2022-10-17T13:22:19.240Z,22.28
2022-10-17T13:24:47.122Z,21.97
2022-10-17T13:27:27.887Z,22.01
2022-10-17T13:29:57.123Z,22.21
2022-10-17T13:32:26.813Z,22.38
2022-10-17T13:35:07.279Z,22.45
2022-10-17T13:37:35.588Z,22.09
2022-10-17T13:40:16.241Z,22.20
2022-10-17T13:42:52.795Z,22.31
2022-10-17T13:45:25.098Z,22.57
2022-10-17T13:47:52.715Z,22.62
2022-10-17T13:50:43.137Z,22.21
2022-10-17T13:53:32.820Z,22.61
2022-10-17T13:56:26.939Z,22.48
2022-10-17T13:58:57.180Z,22.07
2022-10-17T14:01:26.740Z,22.38
2022-10-17T14:04:07.810Z,22.38
2022-10-17T14:06:45.149Z,22.76
2022-10-17T14:09:22.828Z,22.88
2022-10-17T14:12:02.212Z,22.28
2022-10-17T14:14:37.509Z,22.14
2022-10-17T14:17:28.067Z,21.89
2022-10-17T14:20:34.431Z,21.70
2022-10-17T14:23:17.504Z,21.62
2022-10-17T14:25:40.775Z,21.93
2022-10-17T14:28:11.763Z,22.28
2022-10-17T14:31:02.943Z,22.03
2022-10-17T14:33:31.590Z,22.02
2022-10-17T14:36:01.513Z,22.42
2022-10-17T14:38:29.782Z,22.23
2022-10-17T14:41:20.939Z,22.27
2022-10-17T14:44:01.053Z,22.26
2022-10-17T14:46:28.912Z,22.16
2022-10-17T14:49:06.975Z,22.21
2022-10-17T14:51:44.757Z,22.30
2022-10-17T14:54:26.271Z,22.08
2022-10-17T14:56:54.315Z,22.35
2022-10-17T14:59:51.995Z,22.13
2022-10-17T15:02:13.625Z,22.01
2022-10-17T15:04:41.669Z,21.83
2022-10-17T15:07:16.080Z,21.86
2022-10-17T15:09:44.614Z,22.06
2022-10-17T15:12:15.450Z,21.98
2022-10-17T15:14:43.434Z,21.66
2022-10-17T15:17:31.331Z,21.65
2022-10-17T15:19:59.039Z,21.86
2022-10-17T15:22:26.795Z,21.42
2022-10-17T15:24:54.285Z,21.36
2022-10-17T15:27:23.967Z,21.21
2022-10-17T15:29:52.975Z,20.97
2022-10-17T15:32:20.353Z,20.81
2022-10-17T15:34:47.750Z,20.69
2022-10-17T15:37:23.558Z,20.78
2022-10-17T15:39:54.629Z,20.27
2022-10-17T15:42:26.340Z,20.20
2022-10-17T15:44:53.886Z,20.01
2022-10-17T15:47:25.456Z,20.05
2022-10-17T15:49:53.744Z,20.04
2022-10-17T15:52:21.807Z,19.66
2022-10-17T15:54:49.479Z,19.73
2022-10-17T15:57:22.913Z,19.60
2022-10-17T15:59:51.413Z,19.66
2022-10-17T16:02:20.238Z,19.54
2022-10-17T16:04:49.051Z,19.37
2022-10-17T16:07:16.979Z,19.29
2022-10-17T16:09:45.777Z,19.11
2022-10-17T16:12:18.084Z,19.15
2022-10-17T16:14:45.514Z,18.97
2022-10-17T16:17:15.270Z,19.01
2022-10-17T16:19:43.065Z,18.98
2022-10-17T16:22:33.167Z,18.69
2022-10-17T16:25:09.756Z,18.60
2022-10-17T16:27:37.759Z,18.39
2022-10-17T16:30:07.173Z,18.20
2022-10-17T16:32:34.834Z,17.96
2022-10-17T16:35:02.222Z,18.13
2022-10-17T16:37:30.362Z,17.90
2022-10-17T16:39:59.333Z,17.60
2022-10-17T16:42:26.738Z,17.79
2022-10-17T16:44:55.379Z,17.66
2022-10-17T16:47:22.870Z,17.37
2022-10-17T16:49:50.195Z,17.53
2022-10-17T16:52:17.859Z,17.21
2022-10-17T16:54:45.256Z,17.28
2022-10-17T16:57:15.207Z,17.14
2022-10-17T16:59:42.874Z,17.09
2022-10-17T17:02:11.961Z,17.22
2022-10-17T17:04:39.515Z,16.98
2022-10-17T17:07:07.115Z,16.82
2022-10-17T17:09:34.977Z,16.84
2022-10-17T17:12:02.701Z,16.78
2022-10-17T17:14:30.891Z,16.80
2022-10-17T17:16:58.786Z,16.60
2022-10-17T17:19:26.706Z,16.89
2022-10-17T17:21:54.831Z,16.71
2022-10-17T17:24:22.419Z,16.78
2022-10-17T17:26:55.457Z,16.65
2022-10-17T17:29:24.379Z,16.55
2022-10-17T17:31:52.192Z,16.35
2022-10-17T17:34:19.587Z,16.13
2022-10-17T17:36:47.301Z,16.15
2022-10-17T17:39:15.446Z,16.13
2022-10-17T17:41:44.156Z,15.98
2022-10-17T17:44:16.603Z,15.91
2022-10-17T17:46:45.514Z,15.96
2022-10-17T17:49:13.683Z,16.13
2022-10-17T17:51:42.272Z,16.17
2022-10-17T17:54:12.996Z,15.87
2022-10-17T17:56:41.149Z,15.50
2022-10-17T17:59:12.167Z,15.54
2022-10-17T18:01:39.675Z,15.52
2022-10-17T18:04:08.857Z,15.81
2022-10-17T18:06:37.595Z,15.43
2022-10-17T18:09:06.760Z,15.51
2022-10-17T18:11:35.221Z,15.45
2022-10-17T18:14:07.701Z,15.55
2022-10-17T18:16:36.936Z,15.33
2022-10-17T18:19:07.139Z,15.34
2022-10-17T18:21:36.504Z,15.05
2022-10-17T18:24:05.260Z,14.62
2022-10-17T18:26:33.522Z,14.91
2022-10-17T18:29:01.810Z,14.76
2022-10-17T18:31:32.533Z,14.56
2022-10-17T18:34:03.308Z,14.53
2022-10-17T18:36:32.432Z,14.63
2022-10-17T18:39:01.760Z,14.31
2022-10-17T18:41:30.427Z,14.52
2022-10-17T18:43:58.500Z,14.73
2022-10-17T18:46:36.203Z,14.43
2022-10-17T18:49:04.391Z,14.26
2022-10-17T18:51:31.907Z,14.27
2022-10-17T18:53:59.754Z,14.69
2022-10-17T18:56:27.940Z,14.41
2022-10-17T18:58:56.346Z,14.11
2022-10-17T19:01:26.430Z,14.28
2022-10-17T19:03:56.829Z,13.79
2022-10-17T19:06:29.356Z,13.83
2022-10-17T19:08:59.525Z,14.03
2022-10-17T19:11:28.793Z,13.75
2022-10-17T19:13:57.834Z,13.81
2022-10-17T19:16:28.539Z,13.60
2022-10-17T19:18:57.947Z,13.84
2022-10-17T19:21:25.661Z,13.84
2022-10-17T19:23:58.590Z,13.90
2022-10-17T19:26:28.394Z,14.17
2022-10-17T19:28:56.075Z,14.22
2022-10-17T19:31:27.027Z,14.18
2022-10-17T19:33:55.929Z,13.82
2022-10-17T19:36:28.853Z,13.40
2022-10-17T19:39:00.904Z,13.63
2022-10-17T19:41:28.362Z,13.53
2022-10-17T19:43:55.805Z,13.75
2022-10-17T19:46:25.709Z,13.67
2022-10-17T19:48:53.486Z,14.01
2022-10-17T19:51:24.611Z,13.49
2022-10-17T19:53:54.162Z,13.65
2022-10-17T19:56:22.893Z,13.62
2022-10-17T19:58:51.150Z,13.31
2022-10-17T20:01:24.480Z,13.52
2022-10-17T20:03:53.104Z,13.24
2022-10-17T20:06:20.868Z,13.10
2022-10-17T20:08:50.199Z,13.00
2022-10-17T20:11:22.957Z,12.90
2022-10-17T20:13:51.407Z,13.08
2022-10-17T20:16:22.242Z,12.94
2022-10-17T20:18:51.018Z,13.32
2022-10-17T20:21:21.626Z,13.31
2022-10-17T20:23:49.022Z,13.39
2022-10-17T20:26:33.592Z,13.02
2022-10-17T20:29:10.705Z,13.14
2022-10-17T20:31:39.382Z,13.14
2022-10-17T20:34:07.034Z,12.96
2022-10-17T20:36:37.084Z,12.96
2022-10-17T20:39:05.857Z,12.96
2022-10-17T20:41:33.847Z,13.08
2022-10-17T20:44:01.189Z,13.29
2022-10-17T20:46:36.831Z,13.33
2022-10-17T20:49:06.443Z,13.16
2022-10-17T20:51:34.846Z,12.85
2022-10-17T20:54:03.013Z,13.01
2022-10-17T20:56:32.300Z,12.97
2022-10-17T20:59:05.226Z,13.14
2022-10-17T21:01:34.441Z,13.15
2022-10-17T21:04:21.394Z,12.98
2022-10-17T21:06:51.824Z,12.63
2022-10-17T21:09:19.242Z,12.84
2022-10-17T21:11:46.699Z,12.94
2022-10-17T21:14:16.709Z,12.76
2022-10-17T21:16:44.131Z,12.74
2022-10-17T21:19:12.727Z,12.85
2022-10-17T21:21:42.672Z,12.83
2022-10-17T21:24:13.637Z,12.98
2022-10-17T21:26:42.266Z,13.04
2022-10-17T21:29:10.443Z,12.91
2022-10-17T21:31:39.686Z,12.27
2022-10-17T21:34:22.129Z,12.14
2022-10-17T21:36:49.446Z,12.27
2022-10-17T21:39:17.213Z,12.34
2022-10-17T21:41:45.006Z,12.09
2022-10-17T21:44:14.779Z,12.50
2022-10-17T21:46:42.596Z,12.53
2022-10-17T21:49:12.179Z,12.43
2022-10-17T21:51:39.705Z,12.55
2022-10-17T21:54:07.542Z,12.41
2022-10-17T21:56:35.628Z,12.50
2022-10-17T21:59:04.098Z,12.45
2022-10-17T22:01:34.498Z,12.55
2022-10-17T22:04:05.636Z,12.72
2022-10-17T22:06:40.278Z,12.68
2022-10-17T22:09:14.395Z,12.55
2022-10-17T22:11:42.276Z,12.37
2022-10-17T22:14:16.291Z,12.24
2022-10-17T22:16:47.334Z,11.97
2022-10-17T22:19:18.620Z,11.90
2022-10-17T22:21:46.321Z,11.84
2022-10-17T22:24:14.933Z,11.97
2022-10-17T22:26:44.559Z,12.23
2022-10-17T22:29:12.591Z,12.20
2022-10-17T22:31:40.209Z,12.32
2022-10-17T22:34:08.408Z,12.39
2022-10-17T22:36:35.942Z,12.41
2022-10-17T22:39:04.492Z,12.22
2022-10-17T22:41:32.391Z,12.04
2022-10-17T22:44:00.016Z,12.04
2022-10-17T22:46:27.405Z,11.66
2022-10-17T22:48:54.989Z,11.59
2022-10-17T22:53:55.085Z,11.42
2022-10-17T22:56:23.586Z,11.67
2022-10-17T22:58:51.141Z,11.41
2022-10-17T23:01:20.992Z,11.55
2022-10-17T23:03:48.447Z,11.84
2022-10-17T23:06:16.048Z,11.69
2022-10-17T23:08:43.678Z,11.86
2022-10-17T23:11:11.108Z,11.41
2022-10-17T23:13:40.669Z,11.65
2022-10-17T23:16:08.800Z,11.71
2022-10-17T23:18:37.269Z,11.70
2022-10-17T23:21:05.032Z,11.82
2022-10-17T23:23:32.650Z,11.36
2022-10-17T23:26:11.151Z,11.66
2022-10-17T23:28:39.062Z,11.29
2022-10-17T23:31:11.728Z,10.91
2022-10-17T23:33:41.297Z,11.43
2022-10-17T23:36:10.608Z,11.43
2022-10-17T23:38:39.095Z,11.67
2022-10-17T23:41:06.769Z,11.69
2022-10-17T23:43:34.370Z,11.13
2022-10-17T23:46:02.397Z,11.60
2022-10-17T23:48:30.237Z,11.45
2022-10-17T23:50:57.974Z,11.51
2022-10-17T23:53:25.289Z,11.53
2022-10-17T23:55:53.163Z,10.88
2022-10-17T23:58:20.936Z,11.20
